sensor_id;sensor_type;location;lat;lon;timestamp;pressure;altitude;pressure_sealevel;temperature;humidity
36254;BME280;22291;52.250;21.228;2023-05-27T00:01:41;101123.80;;;10.33;51.58
36254;BME280;22291;52.250;21.228;2023-05-27T00:04:09;101119.22;;;10.28;51.80
36254;BME280;22291;52.250;21.228;2023-05-27T00:06:35;101131.99;;;10.22;51.98
36254;BME280;22291;52.250;21.228;2023-05-27T00:09:02;101132.00;;;10.20;52.51
36254;BME280;22291;52.250;21.228;2023-05-27T00:11:30;101129.90;;;10.17;52.52
36254;BME280;22291;52.250;21.228;2023-05-27T00:13:56;101138.30;;;10.13;52.71
36254;BME280;22291;52.250;21.228;2023-05-27T00:16:23;101139.41;;;10.09;52.76
36254;BME280;22291;52.250;21.228;2023-05-27T00:18:50;101140.27;;;10.04;52.79
36254;BME280;22291;52.250;21.228;2023-05-27T00:21:18;101138.95;;;10.02;53.24
36254;BME280;22291;52.250;21.228;2023-05-27T00:23:50;101144.36;;;9.99;53.14
36254;BME280;22291;52.250;21.228;2023-05-27T00:26:17;101143.33;;;9.95;53.50
36254;BME280;22291;52.250;21.228;2023-05-27T00:28:43;101143.10;;;9.89;53.88
36254;BME280;22291;52.250;21.228;2023-05-27T00:31:09;101138.30;;;9.83;53.99
36254;BME280;22291;52.250;21.228;2023-05-27T00:33:35;101134.56;;;9.79;54.06
36254;BME280;22291;52.250;21.228;2023-05-27T00:36:02;101137.02;;;9.73;53.95
36254;BME280;22291;52.250;21.228;2023-05-27T00:38:30;101135.98;;;9.69;54.51
36254;BME280;22291;52.250;21.228;2023-05-27T00:40:59;101135.75;;;9.63;54.17
36254;BME280;22291;52.250;21.228;2023-05-27T00:43:27;101139.57;;;9.57;54.44
36254;BME280;22291;52.250;21.228;2023-05-27T00:45:56;101139.09;;;9.52;55.02
36254;BME280;22291;52.250;21.228;2023-05-27T00:48:22;101137.22;;;9.47;55.27
36254;BME280;22291;52.250;21.228;2023-05-27T00:50:49;101134.83;;;9.43;55.06
36254;BME280;22291;52.250;21.228;2023-05-27T00:53:17;101130.81;;;9.38;55.39
36254;BME280;22291;52.250;21.228;2023-05-27T00:55:43;101137.56;;;9.35;55.66
36254;BME280;22291;52.250;21.228;2023-05-27T00:58:11;101130.57;;;9.29;55.61
36254;BME280;22291;52.250;21.228;2023-05-27T01:00:37;101131.16;;;9.24;55.94
36254;BME280;22291;52.250;21.228;2023-05-27T01:03:06;101125.78;;;9.19;56.30
36254;BME280;22291;52.250;21.228;2023-05-27T01:05:33;101125.81;;;9.13;56.46
36254;BME280;22291;52.250;21.228;2023-05-27T01:08:03;101121.03;;;9.03;56.75
36254;BME280;22291;52.250;21.228;2023-05-27T01:10:53;101128.87;;;8.99;56.66
36254;BME280;22291;52.250;21.228;2023-05-27T01:13:40;101130.49;;;8.95;57.04
36254;BME280;22291;52.250;21.228;2023-05-27T01:16:15;101131.87;;;8.90;57.14
36254;BME280;22291;52.250;21.228;2023-05-27T01:18:44;101132.44;;;8.84;57.25
36254;BME280;22291;52.250;21.228;2023-05-27T01:21:15;101136.23;;;8.81;57.73
36254;BME280;22291;52.250;21.228;2023-05-27T01:23:50;101139.20;;;8.76;57.80
36254;BME280;22291;52.250;21.228;2023-05-27T01:26:17;101141.38;;;8.74;58.00
36254;BME280;22291;52.250;21.228;2023-05-27T01:28:44;101136.80;;;8.72;58.30
36254;BME280;22291;52.250;21.228;2023-05-27T01:31:31;101136.27;;;8.68;58.17
36254;BME280;22291;52.250;21.228;2023-05-27T01:34:00;101142.48;;;8.66;58.64
36254;BME280;22291;52.250;21.228;2023-05-27T01:36:39;101136.59;;;8.58;58.70
36254;BME280;22291;52.250;21.228;2023-05-27T01:39:16;101135.50;;;8.54;58.74
36254;BME280;22291;52.250;21.228;2023-05-27T01:41:43;101131.75;;;8.50;59.13
36254;BME280;22291;52.250;21.228;2023-05-27T01:44:12;101137.41;;;8.46;59.40
36254;BME280;22291;52.250;21.228;2023-05-27T01:46:43;101142.53;;;8.40;59.47
36254;BME280;22291;52.250;21.228;2023-05-27T01:49:10;101134.46;;;8.35;59.59
36254;BME280;22291;52.250;21.228;2023-05-27T01:51:37;101139.05;;;8.27;59.41
36254;BME280;22291;52.250;21.228;2023-05-27T01:54:03;101142.55;;;8.22;60.12
36254;BME280;22291;52.250;21.228;2023-05-27T01:56:29;101148.49;;;8.14;60.26
36254;BME280;22291;52.250;21.228;2023-05-27T01:58:57;101147.96;;;8.12;60.49
36254;BME280;22291;52.250;21.228;2023-05-27T02:01:23;101150.12;;;8.10;60.57
36254;BME280;22291;52.250;21.228;2023-05-27T02:03:50;101152.02;;;8.07;60.29
36254;BME280;22291;52.250;21.228;2023-05-27T02:06:17;101149.86;;;8.06;60.20
36254;BME280;22291;52.250;21.228;2023-05-27T02:08:43;101150.13;;;8.04;60.69
36254;BME280;22291;52.250;21.228;2023-05-27T02:11:10;101150.41;;;8.00;60.28
36254;BME280;22291;52.250;21.228;2023-05-27T02:13:37;101152.55;;;7.98;60.45
36254;BME280;22291;52.250;21.228;2023-05-27T02:16:05;101156.89;;;7.97;60.63
36254;BME280;22291;52.250;21.228;2023-05-27T02:18:31;101159.02;;;7.95;60.93
36254;BME280;22291;52.250;21.228;2023-05-27T02:20:58;101167.10;;;7.90;60.70
36254;BME280;22291;52.250;21.228;2023-05-27T02:23:26;101163.88;;;7.82;60.66
36254;BME280;22291;52.250;21.228;2023-05-27T02:25:53;101163.88;;;7.77;60.56
36254;BME280;22291;52.250;21.228;2023-05-27T02:28:19;101165.77;;;7.72;60.87
36254;BME280;22291;52.250;21.228;2023-05-27T02:30:45;101162.23;;;7.66;60.75
36254;BME280;22291;52.250;21.228;2023-05-27T02:33:11;101168.70;;;7.62;60.82
36254;BME280;22291;52.250;21.228;2023-05-27T02:35:37;101169.77;;;7.59;61.32
36254;BME280;22291;52.250;21.228;2023-05-27T02:38:04;101171.39;;;7.55;61.73
36254;BME280;22291;52.250;21.228;2023-05-27T02:40:30;101177.85;;;7.51;61.88
36254;BME280;22291;52.250;21.228;2023-05-27T02:42:57;101167.88;;;7.46;61.59
36254;BME280;22291;52.250;21.228;2023-05-27T02:45:23;101171.64;;;7.43;61.74
36254;BME280;22291;52.250;21.228;2023-05-27T02:47:51;101177.00;;;7.40;62.28
36254;BME280;22291;52.250;21.228;2023-05-27T02:50:18;101177.28;;;7.36;62.09
36254;BME280;22291;52.250;21.228;2023-05-27T02:52:45;101175.11;;;7.33;62.35
36254;BME280;22291;52.250;21.228;2023-05-27T02:55:12;101179.41;;;7.32;62.26
36254;BME280;22291;52.250;21.228;2023-05-27T02:57:38;101172.42;;;7.31;62.63
36254;BME280;22291;52.250;21.228;2023-05-27T03:00:08;101173.48;;;7.29;62.64
36254;BME280;22291;52.250;21.228;2023-05-27T03:02:35;101179.94;;;7.28;63.25
36254;BME280;22291;52.250;21.228;2023-05-27T03:05:04;101183.17;;;7.28;63.59
36254;BME280;22291;52.250;21.228;2023-05-27T03:07:31;101179.94;;;7.28;63.85
36254;BME280;22291;52.250;21.228;2023-05-27T03:09:58;101183.17;;;7.28;64.06
36254;BME280;22291;52.250;21.228;2023-05-27T03:12:24;101183.97;;;7.28;63.99
36254;BME280;22291;52.250;21.228;2023-05-27T03:14:51;101185.59;;;7.29;64.13
36254;BME280;22291;52.250;21.228;2023-05-27T03:17:19;101187.50;;;7.34;64.52
36254;BME280;22291;52.250;21.228;2023-05-27T03:19:47;101190.47;;;7.38;64.69
36254;BME280;22291;52.250;21.228;2023-05-27T03:22:14;101193.16;;;7.40;65.11
36254;BME280;22291;52.250;21.228;2023-05-27T03:24:42;101190.73;;;7.44;65.06
36254;BME280;22291;52.250;21.228;2023-05-27T03:27:10;101193.72;;;7.50;65.59
36254;BME280;22291;52.250;21.228;2023-05-27T03:29:37;101193.75;;;7.53;65.99
36254;BME280;22291;52.250;21.228;2023-05-27T03:32:04;101187.02;;;7.58;66.10
36254;BME280;22291;52.250;21.228;2023-05-27T03:34:31;101194.02;;;7.64;66.44
36254;BME280;22291;52.250;21.228;2023-05-27T03:36:57;101196.18;;;7.67;66.41
36254;BME280;22291;52.250;21.228;2023-05-27T03:39:23;101192.42;;;7.73;66.44
36254;BME280;22291;52.250;21.228;2023-05-27T03:41:50;101194.86;;;7.80;66.74
36254;BME280;22291;52.250;21.228;2023-05-27T03:44:17;101188.39;;;7.83;66.92
36254;BME280;22291;52.250;21.228;2023-05-27T03:46:43;101195.66;;;7.88;66.87
36254;BME280;22291;52.250;21.228;2023-05-27T03:49:10;101202.67;;;7.94;67.03
36254;BME280;22291;52.250;21.228;2023-05-27T03:51:37;101213.45;;;7.99;67.09
36254;BME280;22291;52.250;21.228;2023-05-27T03:54:03;101216.94;;;8.05;67.23
36254;BME280;22291;52.250;21.228;2023-05-27T03:56:30;101218.30;;;8.10;67.24
36254;BME280;22291;52.250;21.228;2023-05-27T03:58:57;101220.47;;;8.16;67.23
36254;BME280;22291;52.250;21.228;2023-05-27T04:01:23;101230.72;;;8.24;67.45
36254;BME280;22291;52.250;21.228;2023-05-27T04:03:50;101230.41;;;8.31;67.57
36254;BME280;22291;52.250;21.228;2023-05-27T04:06:16;101228.80;;;8.37;67.55
36254;BME280;22291;52.250;21.228;2023-05-27T04:08:42;101231.26;;;8.47;67.69
36254;BME280;22291;52.250;21.228;2023-05-27T04:11:11;101237.72;;;8.53;67.58
36254;BME280;22291;52.250;21.228;2023-05-27T04:13:39;101236.62;;;8.59;67.51
36254;BME280;22291;52.250;21.228;2023-05-27T04:16:06;101240.11;;;8.68;67.60
36254;BME280;22291;52.250;21.228;2023-05-27T04:18:34;101246.58;;;8.74;67.62
36254;BME280;22291;52.250;21.228;2023-05-27T04:21:02;101244.95;;;8.81;67.64
36254;BME280;22291;52.250;21.228;2023-05-27T04:23:30;101245.21;;;8.87;67.58
36254;BME280;22291;52.250;21.228;2023-05-27T04:25:56;101243.03;;;8.94;67.61
36254;BME280;22291;52.250;21.228;2023-05-27T04:28:23;101251.63;;;9.02;67.62
36254;BME280;22291;52.250;21.228;2023-05-27T04:30:49;101245.67;;;9.10;67.64
36254;BME280;22291;52.250;21.228;2023-05-27T04:33:16;101249.42;;;9.16;67.53
36254;BME280;22291;52.250;21.228;2023-05-27T04:35:43;101242.66;;;9.22;67.45
36254;BME280;22291;52.250;21.228;2023-05-27T04:38:11;101249.11;;;9.28;67.47
36254;BME280;22291;52.250;21.228;2023-05-27T04:40:43;101245.56;;;9.35;67.58
36254;BME280;22291;52.250;21.228;2023-05-27T04:43:12;101251.19;;;9.44;67.51
36254;BME280;22291;52.250;21.228;2023-05-27T04:45:41;101244.14;;;9.51;67.37
36254;BME280;22291;52.250;21.228;2023-05-27T04:48:10;101251.39;;;9.61;67.52
36254;BME280;22291;52.250;21.228;2023-05-27T04:50:36;101252.40;;;9.70;67.43
36254;BME280;22291;52.250;21.228;2023-05-27T04:53:03;101254.52;;;9.78;67.22
36254;BME280;22291;52.250;21.228;2023-05-27T04:55:29;101250.39;;;9.88;67.16
36254;BME280;22291;52.250;21.228;2023-05-27T04:57:57;101250.60;;;9.97;67.12
36254;BME280;22291;52.250;21.228;2023-05-27T05:00:25;101257.05;;;10.04;66.95
36254;BME280;22291;52.250;21.228;2023-05-27T05:03:09;101258.59;;;10.13;66.91
36254;BME280;22291;52.250;21.228;2023-05-27T05:05:37;101256.09;;;10.24;66.61
36254;BME280;22291;52.250;21.228;2023-05-27T05:08:04;101259.53;;;10.35;66.58
36254;BME280;22291;52.250;21.228;2023-05-27T05:10:30;101251.37;;;10.42;66.35
36254;BME280;22291;52.250;21.228;2023-05-27T05:12:56;101252.08;;;10.53;66.18
36254;BME280;22291;52.250;21.228;2023-05-27T05:15:24;101254.13;;;10.64;66.08
36254;BME280;22291;52.250;21.228;2023-05-27T05:17:50;101260.55;;;10.73;65.42
36254;BME280;22291;52.250;21.228;2023-05-27T05:20:16;101248.03;;;10.80;65.38
36254;BME280;22291;52.250;21.228;2023-05-27T05:22:43;101251.94;;;10.93;65.55
36254;BME280;22291;52.250;21.228;2023-05-27T05:25:09;101255.82;;;11.08;65.22
36254;BME280;22291;52.250;21.228;2023-05-27T05:27:35;101248.34;;;11.24;65.16
36254;BME280;22291;52.250;21.228;2023-05-27T05:30:04;101251.94;;;11.38;64.72
36254;BME280;22291;52.250;21.228;2023-05-27T05:32:32;101247.37;;;11.55;64.44
36254;BME280;22291;52.250;21.228;2023-05-27T05:34:59;101256.34;;;11.75;64.24
36254;BME280;22291;52.250;21.228;2023-05-27T05:37:25;101252.31;;;11.91;63.92
36254;BME280;22291;52.250;21.228;2023-05-27T05:39:54;101249.05;;;12.11;63.62
36254;BME280;22291;52.250;21.228;2023-05-27T05:42:22;101250.92;;;12.29;63.28
36254;BME280;22291;52.250;21.228;2023-05-27T05:44:52;101254.94;;;12.48;62.64
36254;BME280;22291;52.250;21.228;2023-05-27T05:47:19;101254.09;;;12.64;62.13
36254;BME280;22291;52.250;21.228;2023-05-27T05:49:46;101260.30;;;12.81;61.80
36254;BME280;22291;52.250;21.228;2023-05-27T05:52:12;101259.52;;;12.95;61.18
36254;BME280;22291;52.250;21.228;2023-05-27T05:54:38;101267.16;;;13.06;60.73
36254;BME280;22291;52.250;21.228;2023-05-27T05:57:05;101263.45;;;13.16;60.46
36254;BME280;22291;52.250;21.228;2023-05-27T05:59:32;101269.39;;;13.32;59.70
36254;BME280;22291;52.250;21.228;2023-05-27T06:01:58;101267.93;;;13.37;58.91
36254;BME280;22291;52.250;21.228;2023-05-27T06:04:24;101271.22;;;13.48;59.00
36254;BME280;22291;52.250;21.228;2023-05-27T06:06:50;101266.09;;;13.60;58.33
36254;BME280;22291;52.250;21.228;2023-05-27T06:09:16;101270.78;;;13.69;57.70
36254;BME280;22291;52.250;21.228;2023-05-27T06:11:42;101271.60;;;13.80;56.99
36254;BME280;22291;52.250;21.228;2023-05-27T06:14:08;101265.74;;;13.87;56.60
36254;BME280;22291;52.250;21.228;2023-05-27T06:16:34;101273.66;;;13.97;56.53
36254;BME280;22291;52.250;21.228;2023-05-27T06:19:06;101271.45;;;14.11;56.32
36254;BME280;22291;52.250;21.228;2023-05-27T06:21:32;101275.42;;;14.27;55.86
36254;BME280;22291;52.250;21.228;2023-05-27T06:23:59;101278.33;;;14.42;55.28
36254;BME280;22291;52.250;21.228;2023-05-27T06:26:26;101284.95;;;14.61;55.17
36254;BME280;22291;52.250;21.228;2023-05-27T06:28:53;101292.80;;;14.83;54.73
36254;BME280;22291;52.250;21.228;2023-05-27T06:31:20;101289.92;;;14.99;54.22
36254;BME280;22291;52.250;21.228;2023-05-27T06:33:46;101295.12;;;15.18;53.49
36254;BME280;22291;52.250;21.228;2023-05-27T06:36:12;101291.33;;;15.37;53.15
36254;BME280;22291;52.250;21.228;2023-05-27T06:38:39;101300.05;;;15.56;52.38
36254;BME280;22291;52.250;21.228;2023-05-27T06:41:05;101300.38;;;15.72;51.58
36254;BME280;22291;52.250;21.228;2023-05-27T06:43:31;101305.71;;;15.86;51.49
36254;BME280;22291;52.250;21.228;2023-05-27T06:45:57;101311.99;;;16.04;50.76
36254;BME280;22291;52.250;21.228;2023-05-27T06:48:23;101312.13;;;16.25;50.73
36254;BME280;22291;52.250;21.228;2023-05-27T06:50:50;101307.37;;;16.46;49.77
36254;BME280;22291;52.250;21.228;2023-05-27T06:53:17;101308.22;;;16.61;49.15
36254;BME280;22291;52.250;21.228;2023-05-27T06:55:43;101304.89;;;16.79;48.60
36254;BME280;22291;52.250;21.228;2023-05-27T06:58:09;101303.38;;;16.99;48.01
36254;BME280;22291;52.250;21.228;2023-05-27T07:00:35;101310.05;;;17.19;47.59
36254;BME280;22291;52.250;21.228;2023-05-27T07:03:02;101302.84;;;17.44;47.14
36254;BME280;22291;52.250;21.228;2023-05-27T07:05:29;101305.84;;;17.66;46.74
36254;BME280;22291;52.250;21.228;2023-05-27T07:07:56;101311.47;;;17.91;46.42
36254;BME280;22291;52.250;21.228;2023-05-27T07:10:22;101319.24;;;18.16;45.66
36254;BME280;22291;52.250;21.228;2023-05-27T07:12:48;101318.66;;;18.38;44.64
36254;BME280;22291;52.250;21.228;2023-05-27T07:15:16;101308.45;;;18.59;44.30
36254;BME280;22291;52.250;21.228;2023-05-27T07:17:42;101313.42;;;18.84;43.74
36254;BME280;22291;52.250;21.228;2023-05-27T07:20:11;101314.38;;;19.07;43.02
36254;BME280;22291;52.250;21.228;2023-05-27T07:22:38;101310.38;;;19.29;41.99
36254;BME280;22291;52.250;21.228;2023-05-27T07:25:07;101308.29;;;19.51;41.75
36254;BME280;22291;52.250;21.228;2023-05-27T07:27:34;101307.47;;;19.75;41.67
36254;BME280;22291;52.250;21.228;2023-05-27T07:30:03;101308.44;;;20.01;40.86
36254;BME280;22291;52.250;21.228;2023-05-27T07:32:30;101304.70;;;20.22;40.35
36254;BME280;22291;52.250;21.228;2023-05-27T07:34:57;101311.58;;;20.44;39.56
36254;BME280;22291;52.250;21.228;2023-05-27T07:37:23;101298.78;;;20.58;38.94
36254;BME280;22291;52.250;21.228;2023-05-27T07:39:51;101302.85;;;20.70;38.37
36254;BME280;22291;52.250;21.228;2023-05-27T07:42:18;101304.81;;;20.85;37.91
36254;BME280;22291;52.250;21.228;2023-05-27T07:44:44;101303.47;;;21.11;37.59
36254;BME280;22291;52.250;21.228;2023-05-27T07:47:11;101299.22;;;21.39;37.49
36254;BME280;22291;52.250;21.228;2023-05-27T07:49:38;101306.77;;;21.68;36.97
36254;BME280;22291;52.250;21.228;2023-05-27T07:52:06;101301.06;;;21.87;36.19
36254;BME280;22291;52.250;21.228;2023-05-27T07:54:33;101292.66;;;22.09;35.94
36254;BME280;22291;52.250;21.228;2023-05-27T07:56:59;101282.83;;;22.41;35.95
36254;BME280;22291;52.250;21.228;2023-05-27T07:59:25;101288.77;;;22.75;35.42
36254;BME280;22291;52.250;21.228;2023-05-27T08:01:51;101282.75;;;22.93;34.49
36254;BME280;22291;52.250;21.228;2023-05-27T08:04:17;101289.84;;;23.17;34.48
36254;BME280;22291;52.250;21.228;2023-05-27T08:06:44;101278.98;;;23.41;33.65
36254;BME280;22291;52.250;21.228;2023-05-27T08:09:10;101275.62;;;23.55;33.43
36254;BME280;22291;52.250;21.228;2023-05-27T08:11:36;101269.52;;;23.73;33.14
36254;BME280;22291;52.250;21.228;2023-05-27T08:14:02;101273.33;;;23.91;32.33
36254;BME280;22291;52.250;21.228;2023-05-27T08:16:28;101274.83;;;24.02;31.96
36254;BME280;22291;52.250;21.228;2023-05-27T08:18:55;101277.09;;;24.10;31.26
36254;BME280;22291;52.250;21.228;2023-05-27T08:21:21;101273.62;;;24.16;31.10
36254;BME280;22291;52.250;21.228;2023-05-27T08:23:48;101268.48;;;24.35;30.89
36254;BME280;22291;52.250;21.228;2023-05-27T08:26:15;101273.59;;;24.54;30.77
36254;BME280;22291;52.250;21.228;2023-05-27T08:28:45;101266.14;;;24.82;30.18
36254;BME280;22291;52.250;21.228;2023-05-27T08:31:12;101262.73;;;25.00;29.79
36254;BME280;22291;52.250;21.228;2023-05-27T08:33:38;101264.59;;;25.16;29.59
36254;BME280;22291;52.250;21.228;2023-05-27T08:36:05;101268.55;;;25.43;29.30
36254;BME280;22291;52.250;21.228;2023-05-27T08:38:32;101266.70;;;25.72;28.94
36254;BME280;22291;52.250;21.228;2023-05-27T08:40:58;101270.13;;;25.93;28.14
36254;BME280;22291;52.250;21.228;2023-05-27T08:43:25;101273.78;;;26.08;27.81
36254;BME280;22291;52.250;21.228;2023-05-27T08:45:52;101268.45;;;26.13;27.49
36254;BME280;22291;52.250;21.228;2023-05-27T08:48:20;101265.30;;;26.25;27.26
36254;BME280;22291;52.250;21.228;2023-05-27T08:50:46;101262.36;;;26.45;27.00
36254;BME280;22291;52.250;21.228;2023-05-27T08:53:13;101260.23;;;26.63;26.38
36254;BME280;22291;52.250;21.228;2023-05-27T08:55:42;101272.32;;;26.75;26.02
36254;BME280;22291;52.250;21.228;2023-05-27T08:58:10;101269.12;;;26.95;25.66
36254;BME280;22291;52.250;21.228;2023-05-27T09:00:36;101268.90;;;27.12;25.36
36254;BME280;22291;52.250;21.228;2023-05-27T09:03:03;101273.45;;;27.14;24.67
36254;BME280;22291;52.250;21.228;2023-05-27T09:05:30;101265.70;;;27.20;24.76
36254;BME280;22291;52.250;21.228;2023-05-27T09:07:57;101257.56;;;27.36;24.50
36254;BME280;22291;52.250;21.228;2023-05-27T09:10:23;101261.71;;;27.47;24.31
36254;BME280;22291;52.250;21.228;2023-05-27T09:12:50;101264.47;;;27.50;23.66
36254;BME280;22291;52.250;21.228;2023-05-27T09:15:17;101257.29;;;27.56;23.31
36254;BME280;22291;52.250;21.228;2023-05-27T09:17:44;101255.28;;;27.64;22.82
36254;BME280;22291;52.250;21.228;2023-05-27T09:20:11;101259.25;;;27.63;22.65
36254;BME280;22291;52.250;21.228;2023-05-27T09:22:40;101253.53;;;27.58;22.45
36254;BME280;22291;52.250;21.228;2023-05-27T09:25:08;101240.27;;;27.47;22.18
36254;BME280;22291;52.250;21.228;2023-05-27T09:27:34;101244.85;;;27.42;22.34
36254;BME280;22291;52.250;21.228;2023-05-27T09:30:08;101247.04;;;27.39;22.33
36254;BME280;22291;52.250;21.228;2023-05-27T09:32:35;101244.85;;;27.42;21.91
36254;BME280;22291;52.250;21.228;2023-05-27T09:35:02;101250.62;;;27.43;21.97
36254;BME280;22291;52.250;21.228;2023-05-27T09:37:33;101255.08;;;27.63;22.03
36254;BME280;22291;52.250;21.228;2023-05-27T09:40:14;101245.00;;;28.02;22.04
36254;BME280;22291;52.250;21.228;2023-05-27T09:42:48;101262.37;;;28.20;21.55
36254;BME280;22291;52.250;21.228;2023-05-27T09:45:18;101256.43;;;28.44;21.74
36254;BME280;22291;52.250;21.228;2023-05-27T09:47:53;101258.84;;;28.68;21.31
36254;BME280;22291;52.250;21.228;2023-05-27T09:50:22;101245.95;;;28.66;20.74
36254;BME280;22291;52.250;21.228;2023-05-27T09:52:49;101246.19;;;28.60;20.20
36254;BME280;22291;52.250;21.228;2023-05-27T09:55:16;101244.63;;;28.59;20.09
36254;BME280;22291;52.250;21.228;2023-05-27T09:57:44;101247.58;;;28.60;20.12
36254;BME280;22291;52.250;21.228;2023-05-27T10:00:13;101257.79;;;28.78;20.37
36254;BME280;22291;52.250;21.228;2023-05-27T10:02:45;101253.39;;;28.99;20.24
36254;BME280;22291;52.250;21.228;2023-05-27T10:05:15;101250.63;;;29.18;19.91
36254;BME280;22291;52.250;21.228;2023-05-27T10:07:46;101251.05;;;29.36;19.90
36254;BME280;22291;52.250;21.228;2023-05-27T10:10:15;101255.56;;;29.72;20.04
36254;BME280;22291;52.250;21.228;2023-05-27T10:12:46;101253.11;;;29.82;18.87
36254;BME280;22291;52.250;21.228;2023-05-27T10:15:27;101255.30;;;29.63;19.36
36254;BME280;22291;52.250;21.228;2023-05-27T10:18:03;101266.97;;;29.70;18.80
36254;BME280;22291;52.250;21.228;2023-05-27T10:20:33;101257.79;;;29.54;18.61
36254;BME280;22291;52.250;21.228;2023-05-27T10:25:51;101261.43;;;29.32;18.86
36254;BME280;22291;52.250;21.228;2023-05-27T10:28:30;101263.69;;;29.25;18.40
36254;BME280;22291;52.250;21.228;2023-05-27T10:31:16;101259.94;;;29.01;18.31
36254;BME280;22291;52.250;21.228;2023-05-27T10:33:50;101253.03;;;28.75;18.60
36254;BME280;22291;52.250;21.228;2023-05-27T10:36:28;101258.75;;;28.53;18.84
36254;BME280;22291;52.250;21.228;2023-05-27T10:39:06;101253.30;;;28.39;18.90
36254;BME280;22291;52.250;21.228;2023-05-27T10:41:51;101252.92;;;28.37;19.13
36254;BME280;22291;52.250;21.228;2023-05-27T10:44:28;101251.13;;;28.35;19.09
36254;BME280;22291;52.250;21.228;2023-05-27T10:47:11;101245.10;;;28.43;19.23
36254;BME280;22291;52.250;21.228;2023-05-27T10:49:46;101258.60;;;28.75;19.25
36254;BME280;22291;52.250;21.228;2023-05-27T10:52:16;101249.53;;;28.90;18.79
36254;BME280;22291;52.250;21.228;2023-05-27T10:54:45;101252.36;;;29.05;19.00
36254;BME280;22291;52.250;21.228;2023-05-27T10:57:13;101256.86;;;29.11;19.54
36254;BME280;22291;52.250;21.228;2023-05-27T10:59:52;101257.11;;;29.04;19.88
36254;BME280;22291;52.250;21.228;2023-05-27T11:02:22;101254.73;;;29.06;19.28
36254;BME280;22291;52.250;21.228;2023-05-27T11:04:50;101259.65;;;29.11;20.02
36254;BME280;22291;52.250;21.228;2023-05-27T11:07:19;101253.22;;;28.98;19.91
36254;BME280;22291;52.250;21.228;2023-05-27T11:09:54;101252.27;;;28.93;20.11
36254;BME280;22291;52.250;21.228;2023-05-27T11:12:21;101253.47;;;28.92;20.22
36254;BME280;22291;52.250;21.228;2023-05-27T11:14:54;101251.98;;;28.80;20.10
36254;BME280;22291;52.250;21.228;2023-05-27T11:17:22;101252.29;;;28.41;20.24
36254;BME280;22291;52.250;21.228;2023-05-27T11:19:51;101253.17;;;27.90;20.40
36254;BME280;22291;52.250;21.228;2023-05-27T11:22:20;101256.58;;;27.31;20.99
36254;BME280;22291;52.250;21.228;2023-05-27T11:24:55;101253.26;;;26.92;21.06
36254;BME280;22291;52.250;21.228;2023-05-27T11:27:23;101254.47;;;26.73;20.81
36254;BME280;22291;52.250;21.228;2023-05-27T11:29:51;101252.25;;;26.51;21.28
36254;BME280;22291;52.250;21.228;2023-05-27T11:32:19;101247.28;;;26.21;21.61
36254;BME280;22291;52.250;21.228;2023-05-27T11:34:47;101243.28;;;26.04;21.12
36254;BME280;22291;52.250;21.228;2023-05-27T11:37:14;101242.50;;;26.04;21.97
36254;BME280;22291;52.250;21.228;2023-05-27T11:39:51;101239.33;;;26.02;21.61
36254;BME280;22291;52.250;21.228;2023-05-27T11:42:24;101230.59;;;25.96;21.76
36254;BME280;22291;52.250;21.228;2023-05-27T11:44:52;101230.59;;;25.96;21.58
36254;BME280;22291;52.250;21.228;2023-05-27T11:47:19;101240.61;;;25.77;21.12
36254;BME280;22291;52.250;21.228;2023-05-27T11:49:48;101236.76;;;25.57;21.49
36254;BME280;22291;52.250;21.228;2023-05-27T11:52:15;101236.13;;;25.50;21.73
36254;BME280;22291;52.250;21.228;2023-05-27T11:54:43;101234.16;;;25.44;21.29
36254;BME280;22291;52.250;21.228;2023-05-27T11:57:10;101222.66;;;25.45;20.77
36254;BME280;22291;52.250;21.228;2023-05-27T11:59:38;101227.23;;;25.44;21.22
36254;BME280;22291;52.250;21.228;2023-05-27T12:02:04;101220.31;;;25.47;20.76
36254;BME280;22291;52.250;21.228;2023-05-27T12:04:31;101220.35;;;25.58;21.75
36254;BME280;22291;52.250;21.228;2023-05-27T12:07:00;101211.44;;;25.59;21.86
36254;BME280;22291;52.250;21.228;2023-05-27T12:09:28;101210.28;;;25.63;21.29
36254;BME280;22291;52.250;21.228;2023-05-27T12:11:55;101215.23;;;25.71;21.78
36254;BME280;22291;52.250;21.228;2023-05-27T12:14:22;101207.35;;;25.73;21.08
36254;BME280;22291;52.250;21.228;2023-05-27T12:16:48;101198.67;;;25.82;21.01
36254;BME280;22291;52.250;21.228;2023-05-27T12:19:15;101209.38;;;25.90;21.30
36254;BME280;22291;52.250;21.228;2023-05-27T12:21:41;101203.87;;;25.98;20.40
36254;BME280;22291;52.250;21.228;2023-05-27T12:24:08;101212.36;;;25.91;20.40
36254;BME280;22291;52.250;21.228;2023-05-27T12:26:34;101202.69;;;25.95;20.82
36254;BME280;22291;52.250;21.228;2023-05-27T12:29:02;101199.53;;;26.00;20.35
36254;BME280;22291;52.250;21.228;2023-05-27T12:31:28;101193.34;;;25.94;19.96
36254;BME280;22291;52.250;21.228;2023-05-27T12:33:54;101189.56;;;25.81;20.03
36254;BME280;22291;52.250;21.228;2023-05-27T12:36:21;101191.28;;;25.65;20.51
36254;BME280;22291;52.250;21.228;2023-05-27T12:38:47;101190.52;;;25.68;20.42
36254;BME280;22291;52.250;21.228;2023-05-27T12:41:13;101194.11;;;25.76;20.59
36254;BME280;22291;52.250;21.228;2023-05-27T12:43:39;101201.62;;;25.83;20.70
36254;BME280;22291;52.250;21.228;2023-05-27T12:46:06;101200.31;;;25.97;20.90
36254;BME280;22291;52.250;21.228;2023-05-27T12:48:32;101204.69;;;26.05;20.41
36254;BME280;22291;52.250;21.228;2023-05-27T12:50:58;101194.59;;;26.14;20.66